sensor_id;sensor_type;location;lat;lon;timestamp;temperature;humidity
12335;DHT22;6233;51.560;9.986;2023-04-25T00:01:43;6.10;99.90
12335;DHT22;6233;51.560;9.986;2023-04-25T00:04:45;6.10;99.90
12335;DHT22;6233;51.560;9.986;2023-04-25T00:07:48;6.00;99.90
12335;DHT22;6233;51.560;9.986;2023-04-25T00:10:49;6.00;99.90
12335;DHT22;6233;51.560;9.986;2023-04-25T00:13:51;6.00;99.90
12335;DHT22;6233;51.560;9.986;2023-04-25T00:16:53;5.90;99.90
12335;DHT22;6233;51.560;9.986;2023-04-25T00:19:55;5.90;99.90
12335;DHT22;6233;51.560;9.986;2023-04-25T00:22:57;5.90;99.90
12335;DHT22;6233;51.560;9.986;2023-04-25T00:25:59;5.80;99.90
12335;DHT22;6233;51.560;9.986;2023-04-25T00:29:00;5.80;99.90
12335;DHT22;6233;51.560;9.986;2023-04-25T00:32:02;5.80;99.90
12335;DHT22;6233;51.560;9.986;2023-04-25T00:35:04;5.80;99.90
12335;DHT22;6233;51.560;9.986;2023-04-25T00:38:07;5.80;99.90
12335;DHT22;6233;51.560;9.986;2023-04-25T00:41:09;5.80;99.90
12335;DHT22;6233;51.560;9.986;2023-04-25T00:44:11;5.80;99.90
12335;DHT22;6233;51.560;9.986;2023-04-25T00:47:13;5.70;99.90
12335;DHT22;6233;51.560;9.986;2023-04-25T00:50:15;5.70;99.90
12335;DHT22;6233;51.560;9.986;2023-04-25T00:53:17;5.70;99.90
12335;DHT22;6233;51.560;9.986;2023-04-25T00:56:19;5.70;99.90
12335;DHT22;6233;51.560;9.986;2023-04-25T00:59:21;5.60;99.90
12335;DHT22;6233;51.560;9.986;2023-04-25T01:02:23;5.70;99.90
12335;DHT22;6233;51.560;9.986;2023-04-25T01:05:25;5.60;99.90
12335;DHT22;6233;51.560;9.986;2023-04-25T01:08:27;5.60;99.90
12335;DHT22;6233;51.560;9.986;2023-04-25T01:11:29;5.60;99.90
12335;DHT22;6233;51.560;9.986;2023-04-25T01:14:31;5.60;99.90
12335;DHT22;6233;51.560;9.986;2023-04-25T01:17:34;5.60;99.90
12335;DHT22;6233;51.560;9.986;2023-04-25T01:20:37;5.50;99.90
12335;DHT22;6233;51.560;9.986;2023-04-25T01:23:40;5.50;99.90
12335;DHT22;6233;51.560;9.986;2023-04-25T01:26:42;5.60;99.90
12335;DHT22;6233;51.560;9.986;2023-04-25T01:29:51;5.60;99.90
12335;DHT22;6233;51.560;9.986;2023-04-25T01:32:55;5.70;99.90
12335;DHT22;6233;51.560;9.986;2023-04-25T01:35:57;5.70;99.90
12335;DHT22;6233;51.560;9.986;2023-04-25T01:39:00;5.80;99.90
12335;DHT22;6233;51.560;9.986;2023-04-25T01:42:02;5.80;99.90
12335;DHT22;6233;51.560;9.986;2023-04-25T01:45:04;5.90;99.90
12335;DHT22;6233;51.560;9.986;2023-04-25T01:48:10;5.80;99.90
12335;DHT22;6233;51.560;9.986;2023-04-25T01:51:12;5.80;99.90
12335;DHT22;6233;51.560;9.986;2023-04-25T01:54:14;5.80;99.90
12335;DHT22;6233;51.560;9.986;2023-04-25T01:57:16;5.70;99.90
12335;DHT22;6233;51.560;9.986;2023-04-25T02:00:18;5.70;99.90
12335;DHT22;6233;51.560;9.986;2023-04-25T02:03:20;5.60;99.90
12335;DHT22;6233;51.560;9.986;2023-04-25T02:06:22;5.60;99.90
12335;DHT22;6233;51.560;9.986;2023-04-25T02:09:23;5.60;99.90
12335;DHT22;6233;51.560;9.986;2023-04-25T02:12:26;5.50;99.90
12335;DHT22;6233;51.560;9.986;2023-04-25T02:15:28;5.50;99.90
12335;DHT22;6233;51.560;9.986;2023-04-25T02:18:30;5.50;99.90
12335;DHT22;6233;51.560;9.986;2023-04-25T02:21:32;5.50;99.90
12335;DHT22;6233;51.560;9.986;2023-04-25T02:24:37;5.50;99.90
12335;DHT22;6233;51.560;9.986;2023-04-25T02:27:38;5.50;99.90
12335;DHT22;6233;51.560;9.986;2023-04-25T02:30:40;5.40;99.90
12335;DHT22;6233;51.560;9.986;2023-04-25T02:33:43;5.40;99.90
12335;DHT22;6233;51.560;9.986;2023-04-25T02:36:44;5.40;99.90
12335;DHT22;6233;51.560;9.986;2023-04-25T02:39:46;5.40;99.90
12335;DHT22;6233;51.560;9.986;2023-04-25T02:42:48;5.40;99.90
12335;DHT22;6233;51.560;9.986;2023-04-25T02:45:49;5.40;99.90
12335;DHT22;6233;51.560;9.986;2023-04-25T02:48:51;5.30;99.90
12335;DHT22;6233;51.560;9.986;2023-04-25T02:51:53;5.30;99.90
12335;DHT22;6233;51.560;9.986;2023-04-25T02:54:55;5.40;99.90
12335;DHT22;6233;51.560;9.986;2023-04-25T02:57:56;5.30;99.90
12335;DHT22;6233;51.560;9.986;2023-04-25T03:00:58;5.30;99.90
12335;DHT22;6233;51.560;9.986;2023-04-25T03:04:00;5.40;99.90
12335;DHT22;6233;51.560;9.986;2023-04-25T03:07:02;5.40;99.90
12335;DHT22;6233;51.560;9.986;2023-04-25T03:10:04;5.50;99.90
12335;DHT22;6233;51.560;9.986;2023-04-25T03:13:07;5.50;99.90
12335;DHT22;6233;51.560;9.986;2023-04-25T03:16:08;5.50;99.90
12335;DHT22;6233;51.560;9.986;2023-04-25T03:19:10;5.50;99.90
12335;DHT22;6233;51.560;9.986;2023-04-25T03:22:12;5.60;99.90
12335;DHT22;6233;51.560;9.986;2023-04-25T03:25:14;5.60;99.90
12335;DHT22;6233;51.560;9.986;2023-04-25T03:28:15;5.60;99.90
12335;DHT22;6233;51.560;9.986;2023-04-25T03:31:17;5.60;99.90
12335;DHT22;6233;51.560;9.986;2023-04-25T03:34:19;5.70;99.90
12335;DHT22;6233;51.560;9.986;2023-04-25T03:37:22;5.70;99.90
12335;DHT22;6233;51.560;9.986;2023-04-25T03:40:24;5.70;99.90
12335;DHT22;6233;51.560;9.986;2023-04-25T03:43:26;5.70;99.90
12335;DHT22;6233;51.560;9.986;2023-04-25T03:46:28;5.70;99.90
12335;DHT22;6233;51.560;9.986;2023-04-25T03:49:29;5.80;99.90
12335;DHT22;6233;51.560;9.986;2023-04-25T03:52:31;5.80;99.90
12335;DHT22;6233;51.560;9.986;2023-04-25T03:55:33;5.80;99.90
12335;DHT22;6233;51.560;9.986;2023-04-25T03:58:35;5.80;99.90
12335;DHT22;6233;51.560;9.986;2023-04-25T04:01:36;5.80;99.90
12335;DHT22;6233;51.560;9.986;2023-04-25T04:04:38;5.80;99.90
12335;DHT22;6233;51.560;9.986;2023-04-25T04:07:40;5.80;99.90
12335;DHT22;6233;51.560;9.986;2023-04-25T04:10:44;5.80;99.90
12335;DHT22;6233;51.560;9.986;2023-04-25T04:13:45;5.80;99.90
12335;DHT22;6233;51.560;9.986;2023-04-25T04:16:47;5.80;99.90
12335;DHT22;6233;51.560;9.986;2023-04-25T04:19:49;5.80;99.90
12335;DHT22;6233;51.560;9.986;2023-04-25T04:22:51;5.80;99.90
12335;DHT22;6233;51.560;9.986;2023-04-25T04:25:53;5.80;99.90
12335;DHT22;6233;51.560;9.986;2023-04-25T04:28:55;5.80;99.90
12335;DHT22;6233;51.560;9.986;2023-04-25T04:31:57;5.80;99.90
12335;DHT22;6233;51.560;9.986;2023-04-25T04:34:59;5.90;99.90
12335;DHT22;6233;51.560;9.986;2023-04-25T04:38:01;5.80;99.90
12335;DHT22;6233;51.560;9.986;2023-04-25T04:41:03;5.90;99.90
12335;DHT22;6233;51.560;9.986;2023-04-25T04:44:05;5.80;99.90
12335;DHT22;6233;51.560;9.986;2023-04-25T04:47:09;5.80;99.90
12335;DHT22;6233;51.560;9.986;2023-04-25T04:50:12;5.80;99.90
12335;DHT22;6233;51.560;9.986;2023-04-25T04:53:14;5.80;99.90
12335;DHT22;6233;51.560;9.986;2023-04-25T04:56:16;5.70;99.90
12335;DHT22;6233;51.560;9.986;2023-04-25T04:59:17;5.70;99.90
12335;DHT22;6233;51.560;9.986;2023-04-25T05:02:19;5.70;99.90
12335;DHT22;6233;51.560;9.986;2023-04-25T05:05:21;5.80;99.90
12335;DHT22;6233;51.560;9.986;2023-04-25T05:08:23;5.90;99.90
12335;DHT22;6233;51.560;9.986;2023-04-25T05:11:25;5.80;99.90
12335;DHT22;6233;51.560;9.986;2023-04-25T05:14:27;5.80;99.90
12335;DHT22;6233;51.560;9.986;2023-04-25T05:17:29;5.80;99.90
12335;DHT22;6233;51.560;9.986;2023-04-25T05:20:30;5.80;99.90
12335;DHT22;6233;51.560;9.986;2023-04-25T05:23:32;5.80;99.90
12335;DHT22;6233;51.560;9.986;2023-04-25T05:26:34;5.80;99.90
12335;DHT22;6233;51.560;9.986;2023-04-25T05:29:36;5.70;99.90
12335;DHT22;6233;51.560;9.986;2023-04-25T05:32:38;5.60;99.90
12335;DHT22;6233;51.560;9.986;2023-04-25T05:35:40;5.60;99.90
12335;DHT22;6233;51.560;9.986;2023-04-25T05:38:42;5.50;99.90
12335;DHT22;6233;51.560;9.986;2023-04-25T05:41:44;5.50;99.90
12335;DHT22;6233;51.560;9.986;2023-04-25T05:44:46;5.40;99.90
12335;DHT22;6233;51.560;9.986;2023-04-25T05:47:48;5.30;99.90
12335;DHT22;6233;51.560;9.986;2023-04-25T05:50:50;5.30;99.90
12335;DHT22;6233;51.560;9.986;2023-04-25T05:53:54;5.30;99.90
12335;DHT22;6233;51.560;9.986;2023-04-25T05:56:57;5.30;99.90
12335;DHT22;6233;51.560;9.986;2023-04-25T05:59:59;5.40;99.90
12335;DHT22;6233;51.560;9.986;2023-04-25T06:03:00;5.40;99.90
12335;DHT22;6233;51.560;9.986;2023-04-25T06:06:03;5.40;99.90
12335;DHT22;6233;51.560;9.986;2023-04-25T06:09:05;5.40;99.90
12335;DHT22;6233;51.560;9.986;2023-04-25T06:12:07;5.30;99.90
12335;DHT22;6233;51.560;9.986;2023-04-25T06:15:08;5.30;99.90
12335;DHT22;6233;51.560;9.986;2023-04-25T06:18:28;5.30;99.90
12335;DHT22;6233;51.560;9.986;2023-04-25T06:21:30;5.40;99.90
12335;DHT22;6233;51.560;9.986;2023-04-25T06:24:33;5.40;99.90
12335;DHT22;6233;51.560;9.986;2023-04-25T06:27:34;5.40;99.90
12335;DHT22;6233;51.560;9.986;2023-04-25T06:30:36;5.40;99.90
12335;DHT22;6233;51.560;9.986;2023-04-25T06:33:38;5.50;99.90
12335;DHT22;6233;51.560;9.986;2023-04-25T06:40:23;5.50;99.90
12335;DHT22;6233;51.560;9.986;2023-04-25T06:43:27;5.50;99.90
12335;DHT22;6233;51.560;9.986;2023-04-25T06:46:29;5.50;99.90
12335;DHT22;6233;51.560;9.986;2023-04-25T06:49:31;5.40;99.90
12335;DHT22;6233;51.560;9.986;2023-04-25T06:52:33;5.40;99.90
12335;DHT22;6233;51.560;9.986;2023-04-25T06:55:34;5.40;99.90
12335;DHT22;6233;51.560;9.986;2023-04-25T06:58:36;5.30;99.90
12335;DHT22;6233;51.560;9.986;2023-04-25T07:01:38;5.20;99.90
12335;DHT22;6233;51.560;9.986;2023-04-25T07:04:39;5.20;99.90
12335;DHT22;6233;51.560;9.986;2023-04-25T07:07:41;5.20;99.90
12335;DHT22;6233;51.560;9.986;2023-04-25T07:10:43;5.10;99.90
12335;DHT22;6233;51.560;9.986;2023-04-25T07:13:45;5.10;99.90
12335;DHT22;6233;51.560;9.986;2023-04-25T07:16:46;5.00;99.90
12335;DHT22;6233;51.560;9.986;2023-04-25T07:19:48;4.90;99.90
12335;DHT22;6233;51.560;9.986;2023-04-25T07:22:50;5.00;99.90
12335;DHT22;6233;51.560;9.986;2023-04-25T07:25:52;5.00;99.90
12335;DHT22;6233;51.560;9.986;2023-04-25T07:28:54;5.00;99.90
12335;DHT22;6233;51.560;9.986;2023-04-25T07:31:59;5.00;99.90
12335;DHT22;6233;51.560;9.986;2023-04-25T07:35:01;5.00;99.90
12335;DHT22;6233;51.560;9.986;2023-04-25T07:38:03;5.00;99.90
12335;DHT22;6233;51.560;9.986;2023-04-25T07:41:05;5.10;99.90
12335;DHT22;6233;51.560;9.986;2023-04-25T07:44:07;5.30;99.90
12335;DHT22;6233;51.560;9.986;2023-04-25T07:47:09;5.60;99.90
12335;DHT22;6233;51.560;9.986;2023-04-25T07:50:11;5.80;99.90
12335;DHT22;6233;51.560;9.986;2023-04-25T07:53:13;6.00;99.90
12335;DHT22;6233;51.560;9.986;2023-04-25T07:56:15;6.20;99.90
12335;DHT22;6233;51.560;9.986;2023-04-25T07:59:16;6.20;99.90
12335;DHT22;6233;51.560;9.986;2023-04-25T08:02:18;6.30;99.90
12335;DHT22;6233;51.560;9.986;2023-04-25T08:05:20;6.40;99.90
12335;DHT22;6233;51.560;9.986;2023-04-25T08:08:23;6.60;99.90
12335;DHT22;6233;51.560;9.986;2023-04-25T08:11:25;6.70;99.90
12335;DHT22;6233;51.560;9.986;2023-04-25T08:14:27;6.90;99.90
12335;DHT22;6233;51.560;9.986;2023-04-25T08:17:30;7.30;99.90
12335;DHT22;6233;51.560;9.986;2023-04-25T08:20:32;7.80;99.90
12335;DHT22;6233;51.560;9.986;2023-04-25T08:23:34;8.00;99.90
12335;DHT22;6233;51.560;9.986;2023-04-25T08:26:35;8.10;99.90
12335;DHT22;6233;51.560;9.986;2023-04-25T08:29:38;8.10;99.90
12335;DHT22;6233;51.560;9.986;2023-04-25T08:32:40;8.30;99.90
12335;DHT22;6233;51.560;9.986;2023-04-25T08:35:44;8.40;99.90
12335;DHT22;6233;51.560;9.986;2023-04-25T08:38:46;8.50;99.90
12335;DHT22;6233;51.560;9.986;2023-04-25T08:41:47;8.70;99.90
12335;DHT22;6233;51.560;9.986;2023-04-25T08:44:49;8.80;99.90
12335;DHT22;6233;51.560;9.986;2023-04-25T08:47:53;9.00;99.90
12335;DHT22;6233;51.560;9.986;2023-04-25T08:50:56;9.10;99.90
12335;DHT22;6233;51.560;9.986;2023-04-25T08:54:08;8.90;99.90
12335;DHT22;6233;51.560;9.986;2023-04-25T08:57:31;9.10;99.90
12335;DHT22;6233;51.560;9.986;2023-04-25T09:00:34;9.40;99.90
12335;DHT22;6233;51.560;9.986;2023-04-25T09:03:36;9.80;99.90
12335;DHT22;6233;51.560;9.986;2023-04-25T09:06:38;9.80;99.90
12335;DHT22;6233;51.560;9.986;2023-04-25T09:09:40;9.50;99.90
12335;DHT22;6233;51.560;9.986;2023-04-25T09:12:42;9.20;99.90
12335;DHT22;6233;51.560;9.986;2023-04-25T09:18:49;8.90;99.90
12335;DHT22;6233;51.560;9.986;2023-04-25T09:25:53;8.50;99.90
12335;DHT22;6233;51.560;9.986;2023-04-25T09:29:05;8.00;99.90
12335;DHT22;6233;51.560;9.986;2023-04-25T09:32:19;7.70;99.90
12335;DHT22;6233;51.560;9.986;2023-04-25T09:35:25;7.60;99.90
12335;DHT22;6233;51.560;9.986;2023-04-25T09:38:34;7.70;99.90
12335;DHT22;6233;51.560;9.986;2023-04-25T09:41:41;7.80;99.90
12335;DHT22;6233;51.560;9.986;2023-04-25T09:44:46;8.00;99.90
12335;DHT22;6233;51.560;9.986;2023-04-25T09:48:02;8.20;99.90
12335;DHT22;6233;51.560;9.986;2023-04-25T09:51:17;8.60;99.90
12335;DHT22;6233;51.560;9.986;2023-04-25T09:54:18;8.70;99.90
12335;DHT22;6233;51.560;9.986;2023-04-25T09:57:22;8.50;99.90
12335;DHT22;6233;51.560;9.986;2023-04-25T10:00:24;8.30;99.90
12335;DHT22;6233;51.560;9.986;2023-04-25T10:03:27;8.10;99.90
12335;DHT22;6233;51.560;9.986;2023-04-25T10:06:31;8.00;99.90
12335;DHT22;6233;51.560;9.986;2023-04-25T10:09:37;7.90;99.90
12335;DHT22;6233;51.560;9.986;2023-04-25T10:12:41;7.90;99.90
12335;DHT22;6233;51.560;9.986;2023-04-25T10:15:45;7.80;99.90
12335;DHT22;6233;51.560;9.986;2023-04-25T10:18:47;7.90;99.90
12335;DHT22;6233;51.560;9.986;2023-04-25T10:22:03;7.90;99.90
12335;DHT22;6233;51.560;9.986;2023-04-25T10:25:06;8.00;99.90
12335;DHT22;6233;51.560;9.986;2023-04-25T10:28:09;8.00;99.90
12335;DHT22;6233;51.560;9.986;2023-04-25T10:31:16;8.10;99.90
12335;DHT22;6233;51.560;9.986;2023-04-25T10:34:19;8.30;99.90
12335;DHT22;6233;51.560;9.986;2023-04-25T10:37:24;8.50;99.90
12335;DHT22;6233;51.560;9.986;2023-04-25T10:40:26;8.80;99.90
12335;DHT22;6233;51.560;9.986;2023-04-25T10:46:33;9.10;99.90
12335;DHT22;6233;51.560;9.986;2023-04-25T10:49:41;9.10;99.90
12335;DHT22;6233;51.560;9.986;2023-04-25T10:52:43;9.00;99.90
12335;DHT22;6233;51.560;9.986;2023-04-25T10:55:49;8.90;99.90
12335;DHT22;6233;51.560;9.986;2023-04-25T10:58:51;8.80;99.90
12335;DHT22;6233;51.560;9.986;2023-04-25T11:01:55;8.60;99.90
12335;DHT22;6233;51.560;9.986;2023-04-25T11:04:57;8.60;99.90
12335;DHT22;6233;51.560;9.986;2023-04-25T11:08:01;8.50;99.90
12335;DHT22;6233;51.560;9.986;2023-04-25T11:11:24;8.50;99.90
12335;DHT22;6233;51.560;9.986;2023-04-25T11:14:27;8.30;99.90
12335;DHT22;6233;51.560;9.986;2023-04-25T11:17:29;8.30;99.90
12335;DHT22;6233;51.560;9.986;2023-04-25T11:20:31;8.30;99.90
12335;DHT22;6233;51.560;9.986;2023-04-25T11:23:33;8.50;99.90
12335;DHT22;6233;51.560;9.986;2023-04-25T11:26:35;8.50;99.90
12335;DHT22;6233;51.560;9.986;2023-04-25T11:29:38;8.60;99.90
12335;DHT22;6233;51.560;9.986;2023-04-25T11:32:40;8.70;99.90
12335;DHT22;6233;51.560;9.986;2023-04-25T11:35:43;8.90;99.90
12335;DHT22;6233;51.560;9.986;2023-04-25T11:38:45;9.10;99.90
12335;DHT22;6233;51.560;9.986;2023-04-25T11:41:47;9.20;99.90
12335;DHT22;6233;51.560;9.986;2023-04-25T11:44:49;9.30;99.90
12335;DHT22;6233;51.560;9.986;2023-04-25T11:47:51;9.30;99.90
12335;DHT22;6233;51.560;9.986;2023-04-25T11:50:54;9.30;99.90
12335;DHT22;6233;51.560;9.986;2023-04-25T11:53:56;9.40;99.90
12335;DHT22;6233;51.560;9.986;2023-04-25T11:56:58;9.10;99.90
12335;DHT22;6233;51.560;9.986;2023-04-25T12:03:10;9.00;99.90
12335;DHT22;6233;51.560;9.986;2023-04-25T12:06:16;8.80;99.90
12335;DHT22;6233;51.560;9.986;2023-04-25T12:09:21;8.80;99.90
12335;DHT22;6233;51.560;9.986;2023-04-25T12:12:32;8.90;99.90
12335;DHT22;6233;51.560;9.986;2023-04-25T12:15:34;9.00;99.90
12335;DHT22;6233;51.560;9.986;2023-04-25T12:18:35;9.20;99.90
12335;DHT22;6233;51.560;9.986;2023-04-25T12:21:37;9.20;99.90
12335;DHT22;6233;51.560;9.986;2023-04-25T12:24:57;9.10;99.90
12335;DHT22;6233;51.560;9.986;2023-04-25T12:28:13;8.90;99.90
12335;DHT22;6233;51.560;9.986;2023-04-25T12:31:16;8.80;99.90
12335;DHT22;6233;51.560;9.986;2023-04-25T12:34:21;8.70;99.90
12335;DHT22;6233;51.560;9.986;2023-04-25T12:37:23;8.60;99.90
12335;DHT22;6233;51.560;9.986;2023-04-25T12:40:25;8.60;99.90
12335;DHT22;6233;51.560;9.986;2023-04-25T12:43:26;8.60;99.90
12335;DHT22;6233;51.560;9.986;2023-04-25T12:46:28;8.60;99.90
12335;DHT22;6233;51.560;9.986;2023-04-25T12:49:30;8.70;99.90
12335;DHT22;6233;51.560;9.986;2023-04-25T12:52:32;8.90;99.90
12335;DHT22;6233;51.560;9.986;2023-04-25T12:55:33;9.00;99.90
12335;DHT22;6233;51.560;9.986;2023-04-25T12:58:35;9.00;99.90
12335;DHT22;6233;51.560;9.986;2023-04-25T13:01:37;9.10;99.90
12335;DHT22;6233;51.560;9.986;2023-04-25T13:04:39;9.10;99.90
12335;DHT22;6233;51.560;9.986;2023-04-25T13:07:41;9.20;99.90
12335;DHT22;6233;51.560;9.986;2023-04-25T13:10:42;9.10;99.90
12335;DHT22;6233;51.560;9.986;2023-04-25T13:13:44;9.20;99.90
12335;DHT22;6233;51.560;9.986;2023-04-25T13:16:46;9.20;99.90
12335;DHT22;6233;51.560;9.986;2023-04-25T13:19:48;9.10;99.90
12335;DHT22;6233;51.560;9.986;2023-04-25T13:26:48;9.20;99.90
12335;DHT22;6233;51.560;9.986;2023-04-25T13:29:49;9.20;99.90
12335;DHT22;6233;51.560;9.986;2023-04-25T13:32:51;9.20;99.90
12335;DHT22;6233;51.560;9.986;2023-04-25T13:35:54;9.20;99.90
12335;DHT22;6233;51.560;9.986;2023-04-25T13:38:57;9.00;99.90
12335;DHT22;6233;51.560;9.986;2023-04-25T13:41:59;9.00;99.90
12335;DHT22;6233;51.560;9.986;2023-04-25T13:45:02;9.00;99.90
12335;DHT22;6233;51.560;9.986;2023-04-25T13:48:04;9.00;99.90
12335;DHT22;6233;51.560;9.986;2023-04-25T13:51:06;8.80;99.90
12335;DHT22;6233;51.560;9.986;2023-04-25T13:54:07;8.60;99.90
12335;DHT22;6233;51.560;9.986;2023-04-25T13:57:10;8.40;99.90
12335;DHT22;6233;51.560;9.986;2023-04-25T14:00:12;8.30;99.90
12335;DHT22;6233;51.560;9.986;2023-04-25T14:03:15;8.40;99.90
12335;DHT22;6233;51.560;9.986;2023-04-25T14:06:17;8.50;99.90
12335;DHT22;6233;51.560;9.986;2023-04-25T14:09:24;8.50;99.90
12335;DHT22;6233;51.560;9.986;2023-04-25T14:12:27;8.50;99.90
12335;DHT22;6233;51.560;9.986;2023-04-25T14:15:32;8.50;99.90
12335;DHT22;6233;51.560;9.986;2023-04-25T14:18:34;8.60;99.90
12335;DHT22;6233;51.560;9.986;2023-04-25T14:21:36;8.60;99.90
12335;DHT22;6233;51.560;9.986;2023-04-25T14:24:37;8.70;99.90
12335;DHT22;6233;51.560;9.986;2023-04-25T14:27:39;8.60;99.90
12335;DHT22;6233;51.560;9.986;2023-04-25T14:30:41;8.70;99.90
12335;DHT22;6233;51.560;9.986;2023-04-25T14:33:43;8.70;99.90
12335;DHT22;6233;51.560;9.986;2023-04-25T14:36:44;8.80;99.90
12335;DHT22;6233;51.560;9.986;2023-04-25T14:39:46;8.90;99.90
12335;DHT22;6233;51.560;9.986;2023-04-25T14:42:48;8.80;99.90
12335;DHT22;6233;51.560;9.986;2023-04-25T14:45:50;8.80;99.90
12335;DHT22;6233;51.560;9.986;2023-04-25T14:48:52;8.70;99.90
12335;DHT22;6233;51.560;9.986;2023-04-25T14:51:54;8.60;99.90
12335;DHT22;6233;51.560;9.986;2023-04-25T14:54:55;8.50;99.90
12335;DHT22;6233;51.560;9.986;2023-04-25T14:57:57;8.60;99.90
12335;DHT22;6233;51.560;9.986;2023-04-25T15:01:00;8.70;99.90
12335;DHT22;6233;51.560;9.986;2023-04-25T15:04:02;8.80;99.90
12335;DHT22;6233;51.560;9.986;2023-04-25T15:07:05;8.80;99.90
12335;DHT22;6233;51.560;9.986;2023-04-25T15:10:07;8.90;99.90
12335;DHT22;6233;51.560;9.986;2023-04-25T15:13:15;8.80;99.90
12335;DHT22;6233;51.560;9.986;2023-04-25T15:16:16;8.80;99.90
12335;DHT22;6233;51.560;9.986;2023-04-25T15:19:18;8.80;99.90
12335;DHT22;6233;51.560;9.986;2023-04-25T15:22:20;8.80;99.90
12335;DHT22;6233;51.560;9.986;2023-04-25T15:25:22;8.80;99.90
12335;DHT22;6233;51.560;9.986;2023-04-25T15:28:24;8.80;99.90
12335;DHT22;6233;51.560;9.986;2023-04-25T15:31:26;8.80;99.90
12335;DHT22;6233;51.560;9.986;2023-04-25T15:34:28;8.90;99.90
12335;DHT22;6233;51.560;9.986;2023-04-25T15:37:29;9.00;99.90
12335;DHT22;6233;51.560;9.986;2023-04-25T15:40:31;9.00;99.90
12335;DHT22;6233;51.560;9.986;2023-04-25T15:43:33;9.00;99.90
12335;DHT22;6233;51.560;9.986;2023-04-25T15:46:38;9.00;99.90
12335;DHT22;6233;51.560;9.986;2023-04-25T15:49:40;9.00;99.90
12335;DHT22;6233;51.560;9.986;2023-04-25T15:52:42;9.00;99.90
12335;DHT22;6233;51.560;9.986;2023-04-25T15:55:44;8.90;99.90
12335;DHT22;6233;51.560;9.986;2023-04-25T15:58:46;8.90;99.90
12335;DHT22;6233;51.560;9.986;2023-04-25T16:01:48;8.80;99.90
12335;DHT22;6233;51.560;9.986;2023-04-25T16:04:50;8.80;99.90
12335;DHT22;6233;51.560;9.986;2023-04-25T16:07:52;8.70;99.90
12335;DHT22;6233;51.560;9.986;2023-04-25T16:10:54;8.60;99.90
12335;DHT22;6233;51.560;9.986;2023-04-25T16:13:57;8.30;99.90
12335;DHT22;6233;51.560;9.986;2023-04-25T16:16:59;8.10;99.90
12335;DHT22;6233;51.560;9.986;2023-04-25T16:20:01;8.00;99.90
12335;DHT22;6233;51.560;9.986;2023-04-25T16:23:10;7.90;99.90
12335;DHT22;6233;51.560;9.986;2023-04-25T16:26:12;7.90;99.90
12335;DHT22;6233;51.560;9.986;2023-04-25T16:29:14;8.00;99.90
12335;DHT22;6233;51.560;9.986;2023-04-25T16:32:18;8.00;99.90
12335;DHT22;6233;51.560;9.986;2023-04-25T16:35:20;8.10;99.90
12335;DHT22;6233;51.560;9.986;2023-04-25T16:38:21;8.20;99.90
12335;DHT22;6233;51.560;9.986;2023-04-25T16:41:23;8.20;99.90
12335;DHT22;6233;51.560;9.986;2023-04-25T16:44:25;8.20;99.90
12335;DHT22;6233;51.560;9.986;2023-04-25T16:47:27;8.20;99.90
12335;DHT22;6233;51.560;9.986;2023-04-25T16:50:29;8.30;99.90
12335;DHT22;6233;51.560;9.986;2023-04-25T16:53:31;8.30;99.90
12335;DHT22;6233;51.560;9.986;2023-04-25T16:56:33;8.30;99.90
12335;DHT22;6233;51.560;9.986;2023-04-25T16:59:34;8.30;99.90
12335;DHT22;6233;51.560;9.986;2023-04-25T17:02:36;8.20;99.90
12335;DHT22;6233;51.560;9.986;2023-04-25T17:05:38;8.10;99.90
12335;DHT22;6233;51.560;9.986;2023-04-25T17:08:40;8.10;99.90
12335;DHT22;6233;51.560;9.986;2023-04-25T17:11:42;8.00;99.90
12335;DHT22;6233;51.560;9.986;2023-04-25T17:14:44;8.00;99.90
12335;DHT22;6233;51.560;9.986;2023-04-25T17:17:47;7.80;99.90
12335;DHT22;6233;51.560;9.986;2023-04-25T17:20:49;7.80;99.90
12335;DHT22;6233;51.560;9.986;2023-04-25T17:23:51;7.70;99.90
12335;DHT22;6233;51.560;9.986;2023-04-25T17:26:53;7.60;99.90
12335;DHT22;6233;51.560;9.986;2023-04-25T17:29:56;7.70;99.90
12335;DHT22;6233;51.560;9.986;2023-04-25T17:32:58;7.60;99.90
12335;DHT22;6233;51.560;9.986;2023-04-25T17:36:00;7.60;99.90
12335;DHT22;6233;51.560;9.986;2023-04-25T17:39:02;7.60;99.90
12335;DHT22;6233;51.560;9.986;2023-04-25T17:42:06;7.60;99.90
12335;DHT22;6233;51.560;9.986;2023-04-25T17:45:09;7.50;99.90
12335;DHT22;6233;51.560;9.986;2023-04-25T17:48:13;7.60;99.90
12335;DHT22;6233;51.560;9.986;2023-04-25T17:51:15;7.60;99.90
12335;DHT22;6233;51.560;9.986;2023-04-25T17:54:16;7.60;99.90
12335;DHT22;6233;51.560;9.986;2023-04-25T17:57:19;7.50;99.90
12335;DHT22;6233;51.560;9.986;2023-04-25T18:00:23;7.50;99.90
12335;DHT22;6233;51.560;9.986;2023-04-25T18:03:25;7.40;99.90
12335;DHT22;6233;51.560;9.986;2023-04-25T18:06:27;7.20;99.90
12335;DHT22;6233;51.560;9.986;2023-04-25T18:09:29;7.10;99.90
12335;DHT22;6233;51.560;9.986;2023-04-25T18:12:33;6.90;99.90
12335;DHT22;6233;51.560;9.986;2023-04-25T18:15:34;6.90;99.90
12335;DHT22;6233;51.560;9.986;2023-04-25T18:18:36;6.80;99.90
12335;DHT22;6233;51.560;9.986;2023-04-25T18:21:38;6.80;99.90
12335;DHT22;6233;51.560;9.986;2023-04-25T18:24:40;6.80;99.90
12335;DHT22;6233;51.560;9.986;2023-04-25T18:27:42;6.80;99.90
12335;DHT22;6233;51.560;9.986;2023-04-25T18:30:44;6.80;99.90
12335;DHT22;6233;51.560;9.986;2023-04-25T18:33:47;6.80;99.90
12335;DHT22;6233;51.560;9.986;2023-04-25T18:36:49;6.80;99.90
12335;DHT22;6233;51.560;9.986;2023-04-25T18:39:53;6.90;99.90
12335;DHT22;6233;51.560;9.986;2023-04-25T18:42:54;6.90;99.90
12335;DHT22;6233;51.560;9.986;2023-04-25T18:45:56;7.00;99.90
12335;DHT22;6233;51.560;9.986;2023-04-25T18:48:58;7.00;99.90
12335;DHT22;6233;51.560;9.986;2023-04-25T18:52:02;6.90;99.90
12335;DHT22;6233;51.560;9.986;2023-04-25T18:55:04;6.90;99.90
12335;DHT22;6233;51.560;9.986;2023-04-25T18:58:06;6.80;99.90
12335;DHT22;6233;51.560;9.986;2023-04-25T19:01:09;6.80;99.90
12335;DHT22;6233;51.560;9.986;2023-04-25T19:04:11;6.80;99.90
12335;DHT22;6233;51.560;9.986;2023-04-25T19:07:13;6.80;99.90
12335;DHT22;6233;51.560;9.986;2023-04-25T19:10:15;6.70;99.90
12335;DHT22;6233;51.560;9.986;2023-04-25T19:13:17;6.70;99.90
12335;DHT22;6233;51.560;9.986;2023-04-25T19:16:18;6.70;99.90
12335;DHT22;6233;51.560;9.986;2023-04-25T19:19:22;6.70;99.90
12335;DHT22;6233;51.560;9.986;2023-04-25T19:22:24;6.70;99.90
12335;DHT22;6233;51.560;9.986;2023-04-25T19:25:26;6.70;99.90
12335;DHT22;6233;51.560;9.986;2023-04-25T19:28:28;6.70;99.90
12335;DHT22;6233;51.560;9.986;2023-04-25T19:31:32;6.70;99.90
12335;DHT22;6233;51.560;9.986;2023-04-25T19:34:34;6.70;99.90
12335;DHT22;6233;51.560;9.986;2023-04-25T19:37:37;6.70;99.90
12335;DHT22;6233;51.560;9.986;2023-04-25T19:40:39;6.70;99.90
12335;DHT22;6233;51.560;9.986;2023-04-25T19:43:40;6.60;99.90
12335;DHT22;6233;51.560;9.986;2023-04-25T19:46:42;6.60;99.90
12335;DHT22;6233;51.560;9.986;2023-04-25T19:49:47;6.60;99.90
12335;DHT22;6233;51.560;9.986;2023-04-25T19:52:48;6.60;99.90
12335;DHT22;6233;51.560;9.986;2023-04-25T19:55:50;6.60;99.90
12335;DHT22;6233;51.560;9.986;2023-04-25T20:02:27;6.50;99.90
12335;DHT22;6233;51.560;9.986;2023-04-25T20:05:29;6.50;99.90
12335;DHT22;6233;51.560;9.986;2023-04-25T20:08:34;6.50;99.90
12335;DHT22;6233;51.560;9.986;2023-04-25T20:11:35;6.40;99.90
12335;DHT22;6233;51.560;9.986;2023-04-25T20:14:37;6.40;99.90
12335;DHT22;6233;51.560;9.986;2023-04-25T20:17:39;6.30;99.90